Time;durP1;ratioP1;P1;durP2;ratioP2;P2;SDS_P1;SDS_P2;PMS_P1;PMS_P2;Temp;Humidity;BMP_temperature;BMP_pressure;BME280_temperature;BME280_humidity;BME280_pressure;Samples;Min_cycle;Max_cycle;Signal;HPM_P1;HPM_P2
2023/10/16 00:01:38;;;;;;;9.02;5.28;;;;;;;;;;4990423;28;25068;-71
2023/10/16 00:04:05;;;;;;;14.10;6.20;;;;;;;;;;4994728;28;25047;-71
2023/10/16 00:06:31;;;;;;;11.98;4.82;;;;;;;;;;4994181;28;25051;-72
2023/10/16 00:09:14;;;;;;;15.23;5.57;;;;;;;;;;4985491;28;25070;-71
2023/10/16 00:11:40;;;;;;;9.55;4.75;;;;;;;;;;4973329;28;25069;-72
2023/10/16 00:14:25;;;;;;;7.38;4.78;;;;;;;;;;4998547;28;25086;-73
2023/10/16 00:16:51;;;;;;;8.95;4.90;;;;;;;;;;4996819;28;25064;-72
2023/10/16 00:19:17;;;;;;;11.45;4.55;;;;;;;;;;4997013;28;25062;-72
2023/10/16 00:21:43;;;;;;;15.13;5.03;;;;;;;;;;5000491;28;25072;-72
2023/10/16 00:24:13;;;;;;;7.97;3.80;;;;;;;;;;4993822;28;25079;-71
2023/10/16 00:26:49;;;;;;;10.90;4.93;;;;;;;;;;4995174;28;25061;-72
2023/10/16 00:29:24;;;;;;;8.52;4.57;;;;;;;;;;4990001;28;25088;-72
2023/10/16 00:31:51;;;;;;;9.13;4.72;;;;;;;;;;4990266;28;25118;-72
2023/10/16 00:34:20;;;;;;;9.05;4.68;;;;;;;;;;4989648;28;25059;-72
2023/10/16 00:36:47;;;;;;;15.15;4.32;;;;;;;;;;4976689;28;25080;-71
2023/10/16 00:39:13;;;;;;;11.20;4.63;;;;;;;;;;4992417;28;25069;-71
2023/10/16 00:41:50;;;;;;;10.48;3.80;;;;;;;;;;4993489;28;25087;-72
2023/10/16 00:44:21;;;;;;;9.88;4.18;;;;;;;;;;4989116;28;25130;-71
2023/10/16 00:46:50;;;;;;;12.88;4.28;;;;;;;;;;4991342;28;25094;-73
2023/10/16 00:49:18;;;;;;;11.95;4.07;;;;;;;;;;4990904;28;25068;-72
2023/10/16 00:51:45;;;;;;;11.70;5.05;;;;;;;;;;4997413;28;25084;-73
2023/10/16 00:54:17;;;;;;;11.88;4.75;;;;;;;;;;4990033;28;25076;-73
2023/10/16 00:56:44;;;;;;;9.80;5.00;;;;;;;;;;4994405;28;25065;-71
2023/10/16 00:59:18;;;;;;;5.95;4.10;;;;;;;;;;4985652;28;25061;-72
2023/10/16 01:01:44;;;;;;;10.77;4.40;;;;;;;;;;4991922;28;25101;-71
2023/10/16 01:04:11;;;;;;;9.52;4.93;;;;;;;;;;4991316;28;25147;-72
2023/10/16 01:06:37;;;;;;;10.90;4.72;;;;;;;;;;4990562;28;25051;-71
2023/10/16 01:09:12;;;;;;;11.45;4.82;;;;;;;;;;4972454;28;25058;-71
2023/10/16 01:11:38;;;;;;;11.60;5.20;;;;;;;;;;4975375;28;25065;-71
2023/10/16 01:14:04;;;;;;;10.32;5.72;;;;;;;;;;4991112;28;25093;-71
2023/10/16 01:16:30;;;;;;;18.35;5.90;;;;;;;;;;4987355;28;25057;-71
2023/10/16 01:19:06;;;;;;;16.05;6.18;;;;;;;;;;4975284;28;25063;-70
2023/10/16 01:21:32;;;;;;;15.38;5.28;;;;;;;;;;4991204;28;25124;-73
2023/10/16 01:24:12;;;;;;;11.77;5.95;;;;;;;;;;4996854;28;25096;-73
2023/10/16 01:26:38;;;;;;;11.27;5.25;;;;;;;;;;4995600;28;25101;-72
2023/10/16 01:29:07;;;;;;;13.65;5.88;;;;;;;;;;4990857;28;25075;-72
2023/10/16 01:31:33;;;;;;;13.35;5.70;;;;;;;;;;4989907;28;25078;-73
2023/10/16 01:33:59;;;;;;;14.20;5.90;;;;;;;;;;4992793;28;25058;-72
2023/10/16 01:36:26;;;;;;;9.35;5.40;;;;;;;;;;4992439;28;25063;-70
2023/10/16 01:38:52;;;;;;;10.32;5.18;;;;;;;;;;4987674;28;25171;-70
2023/10/16 01:41:18;;;;;;;11.88;4.72;;;;;;;;;;4990590;28;25099;-72
2023/10/16 01:43:51;;;;;;;9.88;5.45;;;;;;;;;;4973264;28;25067;-71
2023/10/16 01:46:18;;;;;;;11.77;5.50;;;;;;;;;;4993588;28;25069;-70
2023/10/16 01:48:45;;;;;;;8.18;5.30;;;;;;;;;;4993508;28;25072;-73
2023/10/16 01:51:19;;;;;;;11.13;5.80;;;;;;;;;;5000607;28;25133;-71
2023/10/16 01:53:47;;;;;;;8.52;5.20;;;;;;;;;;5009135;28;25067;-69
2023/10/16 01:56:13;;;;;;;8.88;4.57;;;;;;;;;;4992003;28;25042;-71
2023/10/16 01:58:42;;;;;;;10.52;5.32;;;;;;;;;;5002761;28;25102;-70
2023/10/16 02:01:09;;;;;;;10.93;5.43;;;;;;;;;;5004018;28;25074;-72
2023/10/16 02:03:35;;;;;;;10.27;5.70;;;;;;;;;;4999751;28;25076;-72
2023/10/16 02:06:02;;;;;;;12.38;5.00;;;;;;;;;;4979999;28;25166;-72
2023/10/16 02:08:28;;;;;;;14.82;5.75;;;;;;;;;;4994877;28;25096;-72
2023/10/16 02:10:54;;;;;;;6.78;4.65;;;;;;;;;;4996463;28;25098;-71
2023/10/16 02:13:20;;;;;;;9.80;5.63;;;;;;;;;;4991392;28;25071;-71
2023/10/16 02:15:47;;;;;;;14.18;5.50;;;;;;;;;;4990102;28;25086;-70
2023/10/16 02:18:23;;;;;;;9.52;5.38;;;;;;;;;;4988563;28;25051;-71
2023/10/16 02:20:50;;;;;;;11.57;5.68;;;;;;;;;;4991660;28;25057;-71
2023/10/16 02:23:17;;;;;;;15.02;5.35;;;;;;;;;;4986269;28;25115;-71
2023/10/16 02:25:43;;;;;;;14.60;5.10;;;;;;;;;;4995212;28;25076;-71
2023/10/16 02:28:09;;;;;;;7.25;4.47;;;;;;;;;;4978113;28;25105;-70
2023/10/16 02:30:38;;;;;;;10.27;5.60;;;;;;;;;;4982057;28;25109;-71
2023/10/16 02:35:48;;;;;;;10.27;5.28;;;;;;;;;;4993698;28;25053;-74
2023/10/16 02:38:14;;;;;;;11.23;6.03;;;;;;;;;;4994110;28;25054;-71
2023/10/16 02:40:44;;;;;;;13.48;6.07;;;;;;;;;;4993527;28;25155;-72
2023/10/16 02:43:18;;;;;;;8.68;5.50;;;;;;;;;;4992381;28;25058;-71
2023/10/16 02:45:51;;;;;;;15.70;6.15;;;;;;;;;;4985847;28;25048;-73
2023/10/16 02:48:18;;;;;;;11.93;5.55;;;;;;;;;;4994165;28;25084;-71
2023/10/16 02:50:50;;;;;;;16.13;6.20;;;;;;;;;;4993856;28;25079;-73
2023/10/16 02:53:16;;;;;;;;;;;;;;;;;;4988946;28;25063;-72
2023/10/16 02:55:44;;;;;;;8.55;5.50;;;;;;;;;;4995846;28;24074;-72
2023/10/16 02:58:11;;;;;;;14.98;6.15;;;;;;;;;;4993765;28;25067;-72
2023/10/16 03:00:43;;;;;;;10.75;5.45;;;;;;;;;;4992319;28;25079;-72
2023/10/16 03:03:09;;;;;;;12.95;6.03;;;;;;;;;;4982623;28;25053;-73
2023/10/16 03:05:35;;;;;;;10.82;6.43;;;;;;;;;;4994655;28;25099;-74
2023/10/16 03:08:02;;;;;;;11.95;5.88;;;;;;;;;;4999858;28;25071;-72
2023/10/16 03:10:30;;;;;;;9.25;6.00;;;;;;;;;;5000147;28;25078;-73
2023/10/16 03:13:00;;;;;;;10.90;6.53;;;;;;;;;;5004422;28;25065;-72
2023/10/16 03:15:29;;;;;;;10.43;6.60;;;;;;;;;;5004271;28;25072;-71
2023/10/16 03:17:55;;;;;;;12.52;5.78;;;;;;;;;;4999574;28;25076;-72
2023/10/16 03:20:35;;;;;;;10.68;5.95;;;;;;;;;;4997509;28;25089;-74
2023/10/16 03:23:04;;;;;;;10.57;5.60;;;;;;;;;;4980894;28;25049;-71
2023/10/16 03:25:39;;;;;;;11.75;6.63;;;;;;;;;;4999573;28;25062;-72
2023/10/16 03:28:11;;;;;;;14.35;6.75;;;;;;;;;;4989451;28;25058;-71
2023/10/16 03:30:39;;;;;;;14.20;7.32;;;;;;;;;;4975263;28;25174;-74
2023/10/16 03:33:05;;;;;;;15.55;7.15;;;;;;;;;;4999918;28;25065;-73
2023/10/16 03:35:31;;;;;;;13.82;8.30;;;;;;;;;;4999992;28;25062;-72
2023/10/16 03:38:20;;;;;;;14.02;7.93;;;;;;;;;;4992683;28;25067;-72
2023/10/16 03:40:51;;;;;;;17.08;7.30;;;;;;;;;;4994221;28;25108;-73
2023/10/16 03:43:18;;;;;;;15.23;7.50;;;;;;;;;;4999921;28;25071;-73
2023/10/16 03:45:44;;;;;;;13.57;6.70;;;;;;;;;;4997324;28;25093;-72
2023/10/16 03:48:10;;;;;;;18.15;6.85;;;;;;;;;;5005425;28;25091;-73
2023/10/16 03:50:42;;;;;;;13.30;6.47;;;;;;;;;;5004145;28;25068;-73
2023/10/16 03:53:09;;;;;;;14.35;6.57;;;;;;;;;;5002022;28;25056;-71
2023/10/16 03:55:44;;;;;;;13.60;6.80;;;;;;;;;;4998226;28;25093;-72
2023/10/16 03:58:14;;;;;;;16.73;7.47;;;;;;;;;;4993340;28;25041;-72
2023/10/16 04:00:53;;;;;;;13.93;6.20;;;;;;;;;;4999969;28;25080;-72
2023/10/16 04:03:23;;;;;;;16.45;7.65;;;;;;;;;;4994015;28;25058;-72
2023/10/16 04:05:49;;;;;;;16.65;7.13;;;;;;;;;;4994223;28;25072;-72
2023/10/16 04:08:18;;;;;;;12.95;6.40;;;;;;;;;;4995199;28;25082;-72
2023/10/16 04:10:46;;;;;;;11.05;6.22;;;;;;;;;;4999404;28;25069;-72
2023/10/16 04:13:13;;;;;;;12.98;6.38;;;;;;;;;;4992966;28;25103;-73
2023/10/16 04:21:37;;;;;;;15.90;7.10;;;;;;;;;;4987407;28;25142;-72
2023/10/16 04:23:55;;;;;;;8.20;6.60;;;;;;;;;;4997818;28;25052;-71
2023/10/16 04:31:44;;;;;;;13.80;7.35;;;;;;;;;;4994043;28;25058;-72
2023/10/16 04:34:24;;;;;;;11.65;6.72;;;;;;;;;;4990817;28;25070;-71
2023/10/16 04:36:54;;;;;;;12.48;6.88;;;;;;;;;;4996231;28;25095;-72
2023/10/16 04:45:00;;;;;;;11.48;6.53;;;;;;;;;;4995782;28;25069;-72
2023/10/16 04:47:28;;;;;;;10.25;6.53;;;;;;;;;;4994067;28;25093;-71
2023/10/16 04:50:07;;;;;;;8.27;6.47;;;;;;;;;;4985910;28;25154;-72
2023/10/16 04:53:06;;;;;;;10.25;7.10;;;;;;;;;;4984454;28;25088;-72
2023/10/16 05:00:56;;;;;;;12.15;7.22;;;;;;;;;;4988960;28;25195;-72
2023/10/16 05:03:25;;;;;;;13.95;7.25;;;;;;;;;;4988910;28;25053;-72
2023/10/16 05:06:04;;;;;;;11.07;6.93;;;;;;;;;;4992059;28;25105;-72
2023/10/16 05:08:34;;;;;;;11.60;6.15;;;;;;;;;;4993247;28;25146;-73
2023/10/16 06:14:13;;;;;;;12.65;6.72;;;;;;;;;;4989895;28;25067;-73
2023/10/16 06:16:41;;;;;;;13.88;6.60;;;;;;;;;;4989570;28;25078;-73
2023/10/16 06:19:14;;;;;;;10.60;6.93;;;;;;;;;;4987978;28;24784;-72
2023/10/16 06:21:41;;;;;;;9.82;6.95;;;;;;;;;;4995215;28;25149;-74
2023/10/16 06:24:25;;;;;;;15.52;6.88;;;;;;;;;;4991137;28;25087;-72
2023/10/16 06:26:51;;;;;;;17.92;7.38;;;;;;;;;;4998913;28;25065;-72
2023/10/16 06:29:17;;;;;;;10.32;6.25;;;;;;;;;;4971157;28;25053;-72
2023/10/16 06:31:49;;;;;;;10.45;4.60;;;;;;;;;;4976037;28;25075;-72
2023/10/16 06:34:15;;;;;;;11.13;5.90;;;;;;;;;;4968018;28;25094;-72
2023/10/16 06:36:41;;;;;;;11.82;6.97;;;;;;;;;;4994055;28;25100;-76
2023/10/16 06:39:22;;;;;;;12.32;7.00;;;;;;;;;;4989164;28;25061;-73
2023/10/16 06:41:53;;;;;;;12.68;6.97;;;;;;;;;;4983519;28;25061;-72
2023/10/16 06:44:21;;;;;;;11.68;6.50;;;;;;;;;;4987935;28;25141;-72
2023/10/16 06:46:47;;;;;;;13.80;6.53;;;;;;;;;;4984965;28;25069;-71
2023/10/16 06:49:14;;;;;;;10.95;5.88;;;;;;;;;;4986586;28;25062;-73
2023/10/16 06:51:43;;;;;;;7.15;4.10;;;;;;;;;;4982899;28;25051;-73
2023/10/16 06:54:10;;;;;;;13.00;6.25;;;;;;;;;;4983760;28;25050;-73
2023/10/16 06:56:38;;;;;;;13.85;7.03;;;;;;;;;;4975802;28;25098;-73
2023/10/16 06:59:04;;;;;;;11.15;6.30;;;;;;;;;;4984632;28;25143;-72
2023/10/16 07:01:34;;;;;;;12.63;6.88;;;;;;;;;;4959887;28;25101;-72
2023/10/16 07:04:00;;;;;;;15.18;6.82;;;;;;;;;;4981628;28;25115;-73
2023/10/16 07:06:32;;;;;;;10.63;6.53;;;;;;;;;;4973701;28;25091;-72
2023/10/16 07:09:00;;;;;;;11.60;6.30;;;;;;;;;;4978732;28;25158;-71
2023/10/16 07:11:26;;;;;;;8.90;6.20;;;;;;;;;;4984166;28;25059;-72
2023/10/16 07:13:53;;;;;;;11.05;6.57;;;;;;;;;;4979791;28;25102;-72
2023/10/16 07:16:20;;;;;;;13.07;6.82;;;;;;;;;;4988275;28;25155;-74
2023/10/16 07:18:50;;;;;;;21.85;7.00;;;;;;;;;;4987539;28;25077;-74
2023/10/16 07:21:20;;;;;;;14.57;7.57;;;;;;;;;;4986784;28;25071;-73
2023/10/16 07:23:46;;;;;;;9.18;6.28;;;;;;;;;;4992812;28;25066;-73
2023/10/16 07:26:17;;;;;;;10.80;6.70;;;;;;;;;;4995821;28;25143;-74
2023/10/16 07:28:48;;;;;;;12.60;6.60;;;;;;;;;;4993030;28;25064;-73
2023/10/16 07:31:16;;;;;;;10.23;6.40;;;;;;;;;;4996564;28;25091;-77
2023/10/16 07:33:42;;;;;;;11.57;6.78;;;;;;;;;;5002675;28;25158;-73
2023/10/16 07:36:11;;;;;;;12.38;6.60;;;;;;;;;;4990225;28;25059;-73
2023/10/16 07:38:38;;;;;;;15.77;6.28;;;;;;;;;;4990975;28;25081;-73
2023/10/16 07:41:04;;;;;;;10.52;6.30;;;;;;;;;;4989973;28;25080;-74
2023/10/16 07:43:33;;;;;;;8.38;5.13;;;;;;;;;;4971509;28;25098;-74
2023/10/16 07:48:40;;;;;;;13.52;5.72;;;;;;;;;;4987907;28;25081;-72
2023/10/16 07:51:09;;;;;;;11.73;6.03;;;;;;;;;;4987221;28;25078;-74
2023/10/16 07:53:36;;;;;;;10.45;5.53;;;;;;;;;;4989828;28;25103;-73
2023/10/16 07:56:02;;;;;;;10.82;5.35;;;;;;;;;;4972087;28;25049;-73
2023/10/16 07:58:34;;;;;;;10.30;4.82;;;;;;;;;;4992928;28;25087;-73
2023/10/16 08:03:36;;;;;;;13.98;5.20;;;;;;;;;;4997024;28;25162;-72
2023/10/16 08:06:05;;;;;;;10.77;5.05;;;;;;;;;;4996269;28;25064;-74
2023/10/16 08:08:38;;;;;;;10.68;6.32;;;;;;;;;;4989946;28;25066;-73
2023/10/16 08:11:12;;;;;;;9.77;5.40;;;;;;;;;;4993094;28;25144;-73
2023/10/16 08:13:46;;;;;;;12.65;5.30;;;;;;;;;;4990133;28;25055;-72
2023/10/16 08:16:12;;;;;;;13.20;5.68;;;;;;;;;;4988923;28;25139;-73
2023/10/16 08:18:40;;;;;;;14.02;5.38;;;;;;;;;;4972642;28;25070;-76
2023/10/16 08:21:07;;;;;;;12.32;5.20;;;;;;;;;;4973247;28;25068;-73
2023/10/16 08:23:38;;;;;;;7.32;4.80;;;;;;;;;;4991963;28;25066;-75
2023/10/16 08:26:14;;;;;;;14.45;5.38;;;;;;;;;;4995781;28;25082;-73
2023/10/16 08:28:45;;;;;;;9.90;4.75;;;;;;;;;;4991115;28;25087;-73
2023/10/16 08:31:23;;;;;;;11.30;4.90;;;;;;;;;;4990704;28;25087;-74
2023/10/16 08:33:54;;;;;;;14.25;4.80;;;;;;;;;;4987162;28;25109;-73
2023/10/16 08:36:20;;;;;;;7.63;4.63;;;;;;;;;;4989200;28;25084;-73
2023/10/16 08:38:52;;;;;;;8.73;4.70;;;;;;;;;;4995385;28;25180;-71
2023/10/16 08:42:21;;;;;;;7.32;4.25;;;;;;;;;;4983222;28;25059;-73
2023/10/16 08:44:28;;;;;;;8.35;3.33;;;;;;;;;;4977413;28;25068;-71
2023/10/16 08:49:24;;;;;;;4.75;2.35;;;;;;;;;;4996128;28;25064;-73
2023/10/16 08:51:53;;;;;;;7.53;2.75;;;;;;;;;;4991262;28;25054;-72
2023/10/16 08:57:08;;;;;;;9.57;2.60;;;;;;;;;;4987247;28;25072;-74
2023/10/16 08:59:35;;;;;;;5.28;2.25;;;;;;;;;;4970973;28;25145;-72
2023/10/16 09:02:01;;;;;;;9.00;2.50;;;;;;;;;;4989253;28;25085;-73
2023/10/16 09:04:28;;;;;;;4.18;2.55;;;;;;;;;;4985801;28;25108;-71
2023/10/16 09:06:55;;;;;;;9.23;1.85;;;;;;;;;;4986024;28;25073;-72
2023/10/16 09:09:25;;;;;;;8.48;2.17;;;;;;;;;;4983750;28;25079;-72
2023/10/16 09:11:51;;;;;;;3.83;1.70;;;;;;;;;;4983464;28;25055;-73
2023/10/16 09:14:17;;;;;;;5.80;2.20;;;;;;;;;;4982990;28;25082;-72
2023/10/16 09:16:55;;;;;;;5.60;1.88;;;;;;;;;;4989394;28;25052;-73
2023/10/16 09:19:33;;;;;;;6.45;1.73;;;;;;;;;;4988571;28;25087;-72
2023/10/16 09:21:59;;;;;;;5.03;1.50;;;;;;;;;;4990974;28;25148;-72
2023/10/16 09:24:25;;;;;;;6.30;1.70;;;;;;;;;;4995541;28;25089;-73
2023/10/16 09:26:54;;;;;;;3.13;1.40;;;;;;;;;;4998191;28;25073;-72
2023/10/16 09:29:27;;;;;;;7.50;1.42;;;;;;;;;;4982028;28;25058;-72
2023/10/16 09:31:53;;;;;;;4.38;1.45;;;;;;;;;;4994559;28;25073;-72
2023/10/16 09:34:20;;;;;;;4.05;1.02;;;;;;;;;;4996404;28;25076;-73
2023/10/16 09:36:48;;;;;;;3.83;1.00;;;;;;;;;;4999807;28;25104;-72
2023/10/16 09:39:18;;;;;;;2.88;1.10;;;;;;;;;;4993918;28;25089;-73
2023/10/16 09:41:47;;;;;;;3.55;1.30;;;;;;;;;;4998577;28;25055;-72
2023/10/16 09:44:23;;;;;;;4.97;1.13;;;;;;;;;;4975943;28;25115;-73
2023/10/16 09:46:53;;;;;;;5.30;1.10;;;;;;;;;;4990913;28;25132;-74
2023/10/16 09:49:23;;;;;;;4.43;1.02;;;;;;;;;;4988141;28;25071;-74
2023/10/16 09:52:03;;;;;;;6.90;1.45;;;;;;;;;;4990925;28;25135;-72
2023/10/16 09:54:30;;;;;;;2.15;0.80;;;;;;;;;;4986184;28;25129;-72
2023/10/16 09:57:00;;;;;;;4.80;1.33;;;;;;;;;;4976203;28;25172;-73
2023/10/16 09:59:34;;;;;;;4.20;0.90;;;;;;;;;;4977360;28;25073;-71
2023/10/16 10:02:10;;;;;;;5.85;0.73;;;;;;;;;;4995730;28;25142;-72
2023/10/16 10:04:37;;;;;;;4.90;0.70;;;;;;;;;;5006114;28;25064;-72
2023/10/16 10:07:11;;;;;;;3.15;0.70;;;;;;;;;;5009154;28;25050;-73
2023/10/16 10:09:41;;;;;;;5.28;1.27;;;;;;;;;;5006867;28;25069;-70
2023/10/16 10:12:14;;;;;;;1.23;0.60;;;;;;;;;;4999640;28;25074;-73
2023/10/16 10:14:39;;;;;;;;;;;;;;;;;;4995896;28;25054;-71
2023/10/16 10:17:09;;;;;;;1.73;0.80;;;;;;;;;;5000021;28;24115;-76
2023/10/16 10:19:39;;;;;;;4.28;0.85;;;;;;;;;;4991397;28;25069;-74
2023/10/16 10:22:06;;;;;;;3.83;0.73;;;;;;;;;;4990393;28;25074;-74
2023/10/16 10:24:45;;;;;;;3.72;0.68;;;;;;;;;;4990389;28;25077;-73
2023/10/16 10:27:11;;;;;;;4.80;0.98;;;;;;;;;;4987744;28;25102;-72
2023/10/16 10:29:41;;;;;;;5.43;1.08;;;;;;;;;;4969397;28;25110;-71
2023/10/16 10:32:13;;;;;;;2.67;0.90;;;;;;;;;;4985957;28;25079;-73
2023/10/16 10:34:39;;;;;;;7.60;1.08;;;;;;;;;;4963457;28;25061;-72
2023/10/16 10:37:29;;;;;;;3.90;1.00;;;;;;;;;;4988848;28;25068;-73
2023/10/16 10:40:15;;;;;;;3.22;0.50;;;;;;;;;;4979719;28;25064;-71
2023/10/16 10:42:41;;;;;;;3.63;0.50;;;;;;;;;;4986761;28;25137;-71
2023/10/16 10:45:29;;;;;;;1.75;0.90;;;;;;;;;;4986394;28;25108;-72
2023/10/16 10:47:56;;;;;;;2.00;0.52;;;;;;;;;;4989327;28;25066;-72
2023/10/16 10:50:22;;;;;;;1.63;0.60;;;;;;;;;;4985133;28;25073;-72
2023/10/16 10:52:48;;;;;;;1.48;0.40;;;;;;;;;;4990752;28;25065;-73
2023/10/16 10:55:18;;;;;;;0.60;0.35;;;;;;;;;;4988631;28;25107;-73
2023/10/16 10:57:47;;;;;;;2.28;0.52;;;;;;;;;;4992189;28;25134;-73
2023/10/16 11:02:52;;;;;;;4.93;0.80;;;;;;;;;;4989723;28;25148;-73
2023/10/16 11:05:25;;;;;;;2.95;1.15;;;;;;;;;;4990453;28;25083;-72
2023/10/16 11:10:44;;;;;;;1.15;0.43;;;;;;;;;;4988323;28;25048;-71
2023/10/16 11:13:11;;;;;;;6.30;0.82;;;;;;;;;;4986075;28;25056;-73
2023/10/16 11:15:37;;;;;;;1.55;0.40;;;;;;;;;;4990069;28;25063;-73
2023/10/16 11:18:18;;;;;;;4.40;0.40;;;;;;;;;;4988637;28;25057;-72
2023/10/16 11:20:45;;;;;;;2.55;0.75;;;;;;;;;;4990945;28;25057;-71
2023/10/16 11:23:15;;;;;;;2.75;0.60;;;;;;;;;;4986812;28;25063;-72
2023/10/16 11:25:44;;;;;;;1.70;0.52;;;;;;;;;;4990100;28;25064;-74
2023/10/16 11:28:10;;;;;;;2.20;0.50;;;;;;;;;;4983520;28;25070;-72
2023/10/16 11:30:38;;;;;;;1.58;0.80;;;;;;;;;;4987612;28;25075;-72
2023/10/16 11:33:09;;;;;;;1.70;0.80;;;;;;;;;;4994183;28;25154;-73
2023/10/16 11:35:35;;;;;;;4.80;0.80;;;;;;;;;;4995889;28;25086;-72
2023/10/16 11:38:13;;;;;;;2.10;0.65;;;;;;;;;;4971778;28;25057;-73
2023/10/16 11:40:41;;;;;;;6.32;0.57;;;;;;;;;;4988591;28;25061;-72
2023/10/16 11:43:11;;;;;;;1.45;0.50;;;;;;;;;;4975105;28;25052;-71
2023/10/16 11:45:37;;;;;;;17.75;1.20;;;;;;;;;;4994261;28;25056;-71
2023/10/16 11:50:52;;;;;;;2.38;0.80;;;;;;;;;;4997271;28;25083;-74
2023/10/16 11:53:25;;;;;;;0.73;0.55;;;;;;;;;;4992230;28;25058;-71
2023/10/16 11:55:51;;;;;;;1.98;0.52;;;;;;;;;;4990854;28;25101;-74
2023/10/16 11:58:18;;;;;;;0.73;0.28;;;;;;;;;;4985072;28;25115;-72
2023/10/16 12:00:54;;;;;;;1.75;0.50;;;;;;;;;;4990031;28;25067;-71
2023/10/16 12:03:26;;;;;;;3.75;0.50;;;;;;;;;;4983344;28;25055;-72
2023/10/16 12:05:52;;;;;;;;;;;;;;;;;;4999999;28;25066;-72
2023/10/16 12:08:21;;;;;;;5.28;0.82;;;;;;;;;;5004444;28;25050;-73
2023/10/16 12:10:47;;;;;;;2.13;0.52;;;;;;;;;;4997017;28;25070;-72
2023/10/16 12:13:13;;;;;;;1.17;0.60;;;;;;;;;;4986452;28;25076;-75
2023/10/16 12:15:43;;;;;;;2.58;0.60;;;;;;;;;;4993133;28;25050;-74
2023/10/16 12:18:09;;;;;;;2.45;0.85;;;;;;;;;;4987375;28;25056;-73
2023/10/16 12:20:37;;;;;;;1.23;0.50;;;;;;;;;;5006321;28;25054;-73
2023/10/16 12:23:04;;;;;;;2.25;1.05;;;;;;;;;;4998572;28;25087;-74
2023/10/16 12:25:30;;;;;;;1.00;0.60;;;;;;;;;;4965460;28;25053;-74
2023/10/16 12:27:56;;;;;;;2.42;0.82;;;;;;;;;;4997630;28;25084;-73
2023/10/16 12:30:23;;;;;;;1.85;0.40;;;;;;;;;;4997887;28;25077;-74
2023/10/16 12:32:49;;;;;;;2.10;0.60;;;;;;;;;;4998177;28;25075;-72
2023/10/16 12:35:18;;;;;;;1.63;0.55;;;;;;;;;;4996472;28;25067;-73
2023/10/16 12:37:44;;;;;;;3.25;1.42;;;;;;;;;;4989211;28;25089;-73
2023/10/16 12:40:34;;;;;;;2.17;0.75;;;;;;;;;;4988072;28;25068;-75
2023/10/16 12:43:00;;;;;;;4.60;0.77;;;;;;;;;;4984277;28;25043;-72
2023/10/16 12:45:27;;;;;;;5.25;0.93;;;;;;;;;;4986387;28;25064;-72
2023/10/16 12:47:54;;;;;;;0.70;0.40;;;;;;;;;;4984508;28;25152;-71
2023/10/16 12:50:23;;;;;;;2.35;0.75;;;;;;;;;;4967482;28;25063;-74
2023/10/16 12:52:52;;;;;;;3.08;1.08;;;;;;;;;;4983052;28;25069;-74
2023/10/16 12:55:19;;;;;;;2.30;0.88;;;;;;;;;;4985064;28;25119;-73
2023/10/16 12:57:48;;;;;;;2.30;0.65;;;;;;;;;;4985619;28;25077;-73
2023/10/16 13:00:16;;;;;;;1.55;0.70;;;;;;;;;;4985863;28;25144;-74
2023/10/16 13:02:48;;;;;;;3.55;1.08;;;;;;;;;;4984938;28;25097;-74
2023/10/16 13:05:15;;;;;;;2.25;1.02;;;;;;;;;;4994462;28;25061;-73
2023/10/16 13:07:44;;;;;;;2.55;1.08;;;;;;;;;;4999773;28;25108;-76
2023/10/16 13:10:14;;;;;;;2.83;0.60;;;;;;;;;;4972153;28;25067;-72
2023/10/16 13:12:44;;;;;;;1.33;0.60;;;;;;;;;;4995113;28;25053;-74
2023/10/16 13:15:14;;;;;;;2.53;0.50;;;;;;;;;;4989851;28;25093;-74
2023/10/16 13:17:40;;;;;;;2.63;0.70;;;;;;;;;;4984632;28;25047;-74
2023/10/16 13:20:19;;;;;;;3.08;0.50;;;;;;;;;;4984800;28;25145;-75
2023/10/16 13:22:49;;;;;;;2.38;0.43;;;;;;;;;;4984605;28;25048;-75
2023/10/16 13:25:15;;;;;;;1.63;0.93;;;;;;;;;;4986874;28;25060;-73
2023/10/16 13:27:41;;;;;;;2.72;0.47;;;;;;;;;;4991783;28;25105;-75
2023/10/16 13:30:11;;;;;;;1.48;0.50;;;;;;;;;;4984441;28;25051;-76
2023/10/16 13:32:40;;;;;;;2.00;0.68;;;;;;;;;;4988195;28;25076;-76
2023/10/16 13:35:12;;;;;;;1.58;0.77;;;;;;;;;;4984731;28;25110;-75
2023/10/16 13:37:38;;;;;;;4.05;0.65;;;;;;;;;;4983995;28;25120;-73
2023/10/16 13:40:04;;;;;;;6.22;0.80;;;;;;;;;;4983740;28;25150;-75
2023/10/16 13:42:30;;;;;;;0.52;0.32;;;;;;;;;;4986637;28;25067;-71
2023/10/16 13:44:56;;;;;;;2.97;0.60;;;;;;;;;;4980474;28;25171;-73
2023/10/16 13:47:23;;;;;;;2.45;0.90;;;;;;;;;;4982815;28;25088;-74
2023/10/16 13:49:50;;;;;;;1.88;0.50;;;;;;;;;;4964800;28;25066;-72
2023/10/16 13:52:18;;;;;;;1.17;0.55;;;;;;;;;;4986649;28;25054;-72
2023/10/16 13:54:44;;;;;;;3.47;0.65;;;;;;;;;;4990209;28;25071;-73
2023/10/16 13:57:10;;;;;;;1.73;0.47;;;;;;;;;;4993927;28;25079;-73
2023/10/16 13:59:36;;;;;;;2.65;0.60;;;;;;;;;;4961731;28;25112;-73
2023/10/16 14:02:03;;;;;;;2.42;0.50;;;;;;;;;;4987705;28;25080;-74
2023/10/16 14:04:33;;;;;;;5.20;0.70;;;;;;;;;;4986206;28;25050;-74
2023/10/16 14:06:59;;;;;;;2.80;0.70;;;;;;;;;;4971035;28;25080;-74
2023/10/16 14:09:28;;;;;;;1.35;0.63;;;;;;;;;;4988967;28;25104;-73
2023/10/16 14:11:58;;;;;;;2.25;0.73;;;;;;;;;;4973907;28;25135;-71
2023/10/16 14:14:25;;;;;;;2.20;0.75;;;;;;;;;;4985708;28;25107;-73
2023/10/16 14:16:52;;;;;;;4.03;0.82;;;;;;;;;;4986250;28;25139;-73
2023/10/16 14:19:22;;;;;;;0.82;0.55;;;;;;;;;;4992610;28;25055;-74
2023/10/16 14:21:51;;;;;;;4.25;0.90;;;;;;;;;;4996441;28;25068;-74
2023/10/16 14:24:22;;;;;;;5.15;0.95;;;;;;;;;;4998620;28;25056;-74
2023/10/16 14:26:49;;;;;;;2.10;0.70;;;;;;;;;;4987569;28;25060;-73
2023/10/16 14:29:15;;;;;;;1.75;0.60;;;;;;;;;;4989828;28;25061;-74
2023/10/16 14:31:46;;;;;;;1.92;0.65;;;;;;;;;;4990663;28;25098;-73
2023/10/16 14:34:17;;;;;;;1.77;0.40;;;;;;;;;;4976958;28;25091;-73
2023/10/16 14:36:45;;;;;;;3.33;0.93;;;;;;;;;;5002427;28;25084;-72
2023/10/16 14:39:12;;;;;;;4.47;0.77;;;;;;;;;;5004949;28;25085;-73
2023/10/16 14:41:41;;;;;;;2.70;0.60;;;;;;;;;;4990917;28;25070;-73
2023/10/16 14:44:08;;;;;;;3.13;0.57;;;;;;;;;;5010853;28;25061;-73
2023/10/16 14:46:36;;;;;;;2.30;0.88;;;;;;;;;;5008461;28;25079;-74
2023/10/16 14:49:02;;;;;;;3.72;1.13;;;;;;;;;;5003649;28;25075;-75
2023/10/16 14:51:30;;;;;;;3.05;0.82;;;;;;;;;;5005990;28;25053;-73
2023/10/16 14:53:56;;;;;;;2.75;0.88;;;;;;;;;;5004524;28;25131;-73
2023/10/16 14:56:23;;;;;;;5.38;0.88;;;;;;;;;;4998913;28;25052;-75
2023/10/16 14:58:52;;;;;;;4.75;1.00;;;;;;;;;;4995826;28;25096;-74
2023/10/16 15:01:19;;;;;;;4.40;0.85;;;;;;;;;;4994953;28;25069;-73
2023/10/16 15:03:46;;;;;;;2.13;0.85;;;;;;;;;;4994353;28;25062;-72
2023/10/16 15:06:13;;;;;;;1.35;0.52;;;;;;;;;;4991084;28;25154;-73
2023/10/16 15:08:43;;;;;;;1.65;0.88;;;;;;;;;;4993303;28;25160;-74
2023/10/16 15:11:12;;;;;;;3.10;0.63;;;;;;;;;;4986014;28;25142;-74
2023/10/16 15:13:38;;;;;;;3.85;0.60;;;;;;;;;;4986656;28;25093;-73
2023/10/16 15:16:06;;;;;;;2.45;0.90;;;;;;;;;;4986990;28;25106;-72
2023/10/16 15:18:33;;;;;;;2.78;0.57;;;;;;;;;;4983915;28;25070;-75
2023/10/16 15:21:00;;;;;;;4.35;0.88;;;;;;;;;;4996177;28;25066;-71
2023/10/16 15:23:26;;;;;;;5.05;1.45;;;;;;;;;;4995492;28;25075;-72
2023/10/16 15:25:52;;;;;;;1.40;0.70;;;;;;;;;;4970860;28;25070;-73
2023/10/16 15:28:18;;;;;;;1.55;1.25;;;;;;;;;;4994428;28;25063;-73
2023/10/16 15:30:44;;;;;;;4.35;0.85;;;;;;;;;;4993128;28;25047;-75
2023/10/16 15:33:10;;;;;;;3.70;1.02;;;;;;;;;;4968800;28;25075;-73
2023/10/16 15:35:39;;;;;;;5.35;1.02;;;;;;;;;;4997231;28;25107;-75
2023/10/16 15:38:08;;;;;;;6.10;1.45;;;;;;;;;;4986671;28;25114;-73
2023/10/16 15:40:35;;;;;;;3.58;0.63;;;;;;;;;;4989457;28;25053;-75
2023/10/16 15:43:02;;;;;;;4.45;1.15;;;;;;;;;;4987635;28;25083;-75
2023/10/16 15:45:37;;;;;;;4.13;1.00;;;;;;;;;;4994213;28;25071;-72
2023/10/16 15:48:05;;;;;;;4.22;1.30;;;;;;;;;;4987183;28;25063;-72
2023/10/16 15:50:32;;;;;;;3.17;0.77;;;;;;;;;;4991156;28;25092;-73
2023/10/16 15:52:58;;;;;;;5.22;1.33;;;;;;;;;;4990382;28;25073;-73
2023/10/16 15:55:27;;;;;;;4.55;1.25;;;;;;;;;;4989522;28;25072;-72
2023/10/16 15:57:53;;;;;;;1.75;0.90;;;;;;;;;;4991868;28;25056;-72
2023/10/16 16:00:26;;;;;;;6.50;1.38;;;;;;;;;;4986107;28;25163;-72
2023/10/16 16:02:57;;;;;;;3.50;1.17;;;;;;;;;;4990385;28;25092;-72
2023/10/16 16:05:23;;;;;;;3.65;0.75;;;;;;;;;;4977260;28;25112;-73
2023/10/16 16:07:53;;;;;;;3.25;0.93;;;;;;;;;;4979637;28;25058;-73
2023/10/16 16:10:19;;;;;;;3.40;1.10;;;;;;;;;;4965083;28;25083;-72
2023/10/16 16:12:45;;;;;;;9.18;1.55;;;;;;;;;;4972870;28;25076;-73
2023/10/16 16:15:16;;;;;;;4.15;1.33;;;;;;;;;;4972127;28;25057;-72
2023/10/16 16:17:43;;;;;;;5.47;1.10;;;;;;;;;;4985586;28;25067;-74
2023/10/16 16:20:15;;;;;;;3.40;1.10;;;;;;;;;;4987511;28;25142;-73
2023/10/16 16:22:42;;;;;;;0.95;0.73;;;;;;;;;;4968287;28;25078;-73
2023/10/16 16:25:12;;;;;;;5.35;1.02;;;;;;;;;;4993519;28;25049;-75
2023/10/16 16:27:38;;;;;;;2.30;1.10;;;;;;;;;;4990214;28;25118;-72
2023/10/16 16:30:04;;;;;;;7.32;1.10;;;;;;;;;;4985294;28;25059;-74
2023/10/16 16:32:30;;;;;;;5.60;1.05;;;;;;;;;;4991360;28;25097;-73
2023/10/16 16:34:56;;;;;;;3.47;1.05;;;;;;;;;;4991750;28;25061;-73
2023/10/16 16:37:22;;;;;;;4.80;1.00;;;;;;;;;;4984707;28;25061;-70